createdAt,value
2023-01-17T00:00:44.627Z,2.59
2023-01-17T00:06:24.167Z,2.61
2023-01-17T00:11:31.356Z,2.64
2023-01-17T00:16:38.548Z,2.68
2023-01-17T00:22:03.493Z,2.73
2023-01-17T00:27:12.279Z,2.75
2023-01-17T00:32:18.280Z,2.72
2023-01-17T00:37:24.299Z,2.70
2023-01-17T00:42:30.353Z,2.68
2023-01-17T00:47:56.900Z,2.69
2023-01-17T00:53:25.324Z,2.72
2023-01-17T00:58:50.161Z,2.79
2023-01-17T01:04:14.931Z,2.82
2023-01-17T01:09:39.689Z,2.81
2023-01-17T01:15:04.306Z,2.78
2023-01-17T01:20:30.545Z,2.77
2023-01-17T01:25:55.947Z,2.78
2023-01-17T01:31:21.873Z,2.80
2023-01-17T01:36:29.086Z,2.81
2023-01-17T01:41:36.393Z,2.83
2023-01-17T01:46:44.276Z,2.84
2023-01-17T01:51:55.619Z,2.84
2023-01-17T01:57:06.399Z,2.83
2023-01-17T02:02:16.960Z,2.81
2023-01-17T02:07:27.978Z,2.79
2023-01-17T02:12:35.936Z,2.77
2023-01-17T02:17:55.805Z,2.75
2023-01-17T02:23:37.470Z,2.71
2023-01-17T02:29:01.662Z,2.65
2023-01-17T02:34:16.272Z,2.60
2023-01-17T02:39:29.684Z,2.58
2023-01-17T02:44:43.106Z,2.57
2023-01-17T02:49:51.370Z,2.54
2023-01-17T02:55:10.923Z,2.52
2023-01-17T03:00:28.035Z,2.52
2023-01-17T03:05:42.399Z,2.53
2023-01-17T03:10:49.559Z,2.54
2023-01-17T03:15:56.686Z,2.54
2023-01-17T03:21:03.888Z,2.53
2023-01-17T03:26:11.759Z,2.54
2023-01-17T03:31:20.126Z,2.56
2023-01-17T03:36:27.325Z,2.58
2023-01-17T03:41:34.411Z,2.57
2023-01-17T03:46:41.609Z,2.59
2023-01-17T03:51:48.716Z,2.60
2023-01-17T03:56:55.762Z,2.63
2023-01-17T04:02:03.089Z,2.66
2023-01-17T04:07:10.361Z,2.68
2023-01-17T04:12:17.845Z,2.71
2023-01-17T04:17:25.000Z,2.74
2023-01-17T04:22:32.579Z,2.79
2023-01-17T04:27:39.705Z,2.79
2023-01-17T04:32:47.036Z,2.77
2023-01-17T04:37:54.204Z,2.79
2023-01-17T04:43:01.543Z,2.82
2023-01-17T04:48:10.344Z,2.85
2023-01-17T04:53:17.601Z,2.90
2023-01-17T04:58:25.141Z,2.95
2023-01-17T05:03:32.503Z,2.91
2023-01-17T05:08:39.706Z,2.87
2023-01-17T05:13:48.743Z,2.85
2023-01-17T05:18:56.427Z,2.85
2023-01-17T05:24:03.538Z,2.89
2023-01-17T05:29:10.833Z,2.89
2023-01-17T05:34:17.960Z,2.87
2023-01-17T05:39:26.564Z,2.80
2023-01-17T05:44:33.758Z,2.71
2023-01-17T05:49:40.787Z,2.64
2023-01-17T05:54:48.151Z,2.63
2023-01-17T05:59:55.317Z,2.63
2023-01-17T06:05:03.547Z,2.62
2023-01-17T06:10:12.893Z,2.60
2023-01-17T06:15:20.701Z,2.56
2023-01-17T06:20:28.794Z,2.55
2023-01-17T06:25:40.719Z,2.56
2023-01-17T06:30:48.423Z,2.57
2023-01-17T06:35:56.107Z,2.55
2023-01-17T06:41:06.877Z,2.51
2023-01-17T06:46:14.010Z,2.49
2023-01-17T06:51:21.208Z,2.47
2023-01-17T06:56:31.197Z,2.46
2023-01-17T07:01:38.453Z,2.47
2023-01-17T07:06:45.814Z,2.45
2023-01-17T07:11:59.703Z,2.42
2023-01-17T07:17:06.904Z,2.37
2023-01-17T07:22:14.238Z,2.33
2023-01-17T07:27:21.360Z,2.29
2023-01-17T07:32:28.886Z,2.27
2023-01-17T07:37:36.067Z,2.26
2023-01-17T07:42:43.228Z,2.28
2023-01-17T07:47:50.854Z,2.31
2023-01-17T07:52:57.992Z,2.34
2023-01-17T07:58:05.191Z,2.34
2023-01-17T08:03:16.078Z,2.36
2023-01-17T08:08:23.505Z,2.41
2023-01-17T08:13:30.938Z,2.47
2023-01-17T08:18:38.485Z,2.47
2023-01-17T08:23:50.545Z,2.44
2023-01-17T08:29:02.215Z,2.46
2023-01-17T08:34:09.509Z,2.46
2023-01-17T08:39:16.977Z,2.47
2023-01-17T08:44:24.803Z,2.48
2023-01-17T08:49:31.991Z,2.46
2023-01-17T08:54:39.370Z,2.45
2023-01-17T08:59:46.931Z,2.49
2023-01-17T09:04:54.369Z,2.55
2023-01-17T09:10:01.567Z,2.58
2023-01-17T09:15:10.463Z,2.57
2023-01-17T09:20:18.087Z,2.57
2023-01-17T09:25:25.285Z,2.59
2023-01-17T09:30:32.528Z,2.69
2023-01-17T09:35:39.683Z,2.80
2023-01-17T09:40:49.344Z,2.85
2023-01-17T09:45:56.670Z,2.87
2023-01-17T09:51:09.758Z,2.88
2023-01-17T09:56:21.098Z,2.91
2023-01-17T10:01:37.805Z,2.98
2023-01-17T10:06:58.365Z,3.06
2023-01-17T10:12:27.022Z,3.12
2023-01-17T10:17:45.018Z,3.18
2023-01-17T10:23:12.706Z,3.30
2023-01-17T10:28:24.783Z,3.50
2023-01-17T10:33:37.367Z,3.86
2023-01-17T10:38:48.603Z,4.32
2023-01-17T10:44:06.016Z,4.68
2023-01-17T10:49:19.308Z,4.94
2023-01-17T10:54:43.999Z,5.10
2023-01-17T10:59:51.322Z,5.14
2023-01-17T11:05:04.443Z,5.20
2023-01-17T11:10:38.113Z,5.03
2023-01-17T11:15:53.265Z,4.84
2023-01-17T11:21:14.235Z,4.75
2023-01-17T11:26:28.970Z,4.75
2023-01-17T11:31:37.267Z,4.74
2023-01-17T11:36:44.832Z,4.79
2023-01-17T11:41:53.510Z,4.86
2023-01-17T11:47:20.100Z,4.93
2023-01-17T11:52:34.475Z,5.01
2023-01-17T11:57:41.891Z,5.12
2023-01-17T12:03:14.094Z,5.20
2023-01-17T12:08:33.640Z,5.24
2023-01-17T12:14:03.459Z,5.20
2023-01-17T12:19:32.441Z,5.14
2023-01-17T12:25:00.102Z,5.11
2023-01-17T12:30:35.595Z,5.13
2023-01-17T12:35:50.846Z,5.19
2023-01-17T12:41:02.988Z,5.25
2023-01-17T12:46:21.037Z,5.26
2023-01-17T12:51:29.458Z,5.25
2023-01-17T12:56:42.533Z,5.24
2023-01-17T13:01:57.978Z,5.27
2023-01-17T13:07:14.690Z,5.33
2023-01-17T13:12:23.917Z,5.40
2023-01-17T13:17:40.405Z,5.43
2023-01-17T13:22:48.808Z,5.40
2023-01-17T13:28:10.849Z,5.34
2023-01-17T13:33:29.836Z,5.30
2023-01-17T13:39:04.859Z,5.23
2023-01-17T13:44:23.094Z,5.16
2023-01-17T13:49:36.654Z,5.09
2023-01-17T13:54:49.712Z,5.05
2023-01-17T13:59:58.345Z,5.07
2023-01-17T14:05:15.409Z,5.10
2023-01-17T14:10:38.454Z,5.11
2023-01-17T14:15:53.326Z,5.10
2023-01-17T14:21:21.820Z,5.09
2023-01-17T14:26:47.844Z,5.06
2023-01-17T14:32:03.650Z,5.02
2023-01-17T14:37:19.752Z,4.97
2023-01-17T14:42:29.687Z,4.96
2023-01-17T14:47:39.498Z,4.99
2023-01-17T14:52:46.915Z,4.98
2023-01-17T14:57:57.983Z,4.96
2023-01-17T15:03:07.265Z,4.94
2023-01-17T15:08:18.422Z,4.90
2023-01-17T15:13:44.385Z,4.86
2023-01-17T15:18:53.193Z,4.82
2023-01-17T15:24:03.557Z,4.84
2023-01-17T15:29:19.896Z,4.89
2023-01-17T15:34:34.061Z,4.95
2023-01-17T15:39:43.180Z,4.98
2023-01-17T15:44:55.553Z,4.95
2023-01-17T15:50:18.071Z,4.90
2023-01-17T15:55:48.100Z,4.82
2023-01-17T16:00:56.100Z,4.75
2023-01-17T16:06:38.334Z,4.68
2023-01-17T16:12:28.899Z,4.66
2023-01-17T16:17:40.332Z,4.68
2023-01-17T16:23:52.251Z,4.72
2023-01-17T16:29:04.871Z,4.76
2023-01-17T16:34:14.245Z,4.75
2023-01-17T16:39:21.688Z,4.69
2023-01-17T16:44:29.683Z,4.63
2023-01-17T16:49:37.778Z,4.56
2023-01-17T16:54:44.874Z,4.49
2023-01-17T16:59:53.278Z,4.45
2023-01-17T17:05:00.676Z,4.46
2023-01-17T17:10:09.125Z,4.47
2023-01-17T17:15:16.705Z,4.47
2023-01-17T17:20:26.686Z,4.45
2023-01-17T17:25:37.202Z,4.38
2023-01-17T17:30:44.926Z,4.28
2023-01-17T17:35:52.022Z,4.14
2023-01-17T17:41:04.607Z,3.97
2023-01-17T17:46:13.027Z,3.78
2023-01-17T17:51:28.496Z,3.62
2023-01-17T17:56:36.986Z,3.49
2023-01-17T18:01:44.358Z,3.40
2023-01-17T18:06:51.714Z,3.32
2023-01-17T18:12:01.209Z,3.23
2023-01-17T18:17:08.451Z,3.11
2023-01-17T18:22:15.551Z,2.98
2023-01-17T18:27:22.711Z,2.83
2023-01-17T18:32:30.105Z,2.69
2023-01-17T18:37:37.423Z,2.58
2023-01-17T18:42:44.535Z,2.46
2023-01-17T18:47:51.958Z,2.38
2023-01-17T18:52:59.444Z,2.36
2023-01-17T18:58:06.959Z,2.32
2023-01-17T19:03:14.135Z,2.20
2023-01-17T19:08:21.269Z,2.08
2023-01-17T19:13:28.543Z,1.95
2023-01-17T19:18:36.366Z,1.83
2023-01-17T19:23:44.603Z,1.68
2023-01-17T19:28:51.999Z,1.56
2023-01-17T19:34:01.203Z,1.48
2023-01-17T19:39:10.640Z,1.43
2023-01-17T19:44:17.832Z,1.42
2023-01-17T19:49:25.125Z,1.42
2023-01-17T19:54:32.338Z,1.37
2023-01-17T19:59:39.582Z,1.29
2023-01-17T20:04:47.270Z,1.18
2023-01-17T20:09:54.655Z,1.06
2023-01-17T20:15:01.804Z,0.91
2023-01-17T20:20:12.983Z,0.75
2023-01-17T20:25:20.451Z,0.62
2023-01-17T20:30:30.643Z,0.50
2023-01-17T20:35:37.769Z,0.45
2023-01-17T20:40:44.905Z,0.46
2023-01-17T20:45:58.397Z,0.38
2023-01-17T20:51:11.339Z,0.22
2023-01-17T20:56:19.090Z,0.02
2023-01-17T21:01:26.594Z,-0.18
2023-01-17T21:06:33.864Z,-0.37
2023-01-17T21:11:41.323Z,-0.56
2023-01-17T21:16:50.475Z,-0.64
2023-01-17T21:21:57.792Z,-0.65
2023-01-17T21:27:04.983Z,-0.67
2023-01-17T21:32:12.162Z,-0.70
2023-01-17T21:37:19.412Z,-0.75
2023-01-17T21:42:26.573Z,-0.84
2023-01-17T21:47:33.811Z,-0.93
2023-01-17T21:52:41.104Z,-1.13
2023-01-17T21:58:05.815Z,-1.31
2023-01-17T22:03:13.000Z,-1.33
2023-01-17T22:08:20.685Z,-1.39
2023-01-17T22:13:31.562Z,-1.49
2023-01-17T22:18:41.045Z,-1.54
2023-01-17T22:23:51.820Z,-1.59
2023-01-17T22:29:00.887Z,-1.66
2023-01-17T22:34:08.123Z,-1.74
2023-01-17T22:39:15.539Z,-1.79
2023-01-17T22:44:22.698Z,-1.78
2023-01-17T22:49:30.101Z,-1.72
2023-01-17T22:54:37.211Z,-1.65
2023-01-17T22:59:44.354Z,-1.63
2023-01-17T23:04:51.463Z,-1.77
2023-01-17T23:09:58.813Z,-1.89
2023-01-17T23:15:24.266Z,-2.00
2023-01-17T23:20:31.358Z,-2.08
2023-01-17T23:25:38.399Z,-2.14
2023-01-17T23:30:47.907Z,-2.21
2023-01-17T23:35:56.296Z,-2.21
2023-01-17T23:41:22.694Z,-2.15
2023-01-17T23:46:30.483Z,-2.10
2023-01-17T23:51:36.076Z,-2.13
2023-01-17T23:56:43.613Z,-2.21
